<?xml version="1.0" encoding="UTF-8" standalone="no" ?>
<gpx xmlns="http://www.topografix.com/GPX/1/1" xmlns:xsi="http://www.w3.org/2001/XMLSchema-instance" xsi:schemaLocation="http://www.topografix.com/GPX/1/1 http://www.topografix.com/GPX/1/1/gpx.xsd" version="1.1" creator="VisuGPX - https://www.visugpx.com">
  <metadata>
    <name>Col du Soulor</name>
    <desc><![CDATA[is le refuge du col du Soulor prendre les pistes enneigées balisées]]></desc>
  </metadata>
  <trk>
    <name><![CDATA[ACTIVE LOG124259]]></name>
    <trkseg>
      <trkpt lat="42.96076" lon="-0.26132">
        <ele>1417.498</ele>
        <time>2015-01-25T11:42:58Z</time>
      </trkpt>
    </trkseg>
  </trk>
  <trk>
    <name><![CDATA[ACTIVE LOG124300]]></name>
    <trkseg>
      <trkpt lat="42.96076" lon="-0.26132">
        <ele>1417.498</ele>
        <time>2015-01-25T11:43:00Z</time>
      </trkpt>
      <trkpt lat="42.96075" lon="-0.26139">
        <ele>1443.629</ele>
        <time>2015-01-25T11:43:30Z</time>
      </trkpt>
      <trkpt lat="42.96072" lon="-0.26143">
        <ele>1453.027</ele>
        <time>2015-01-25T11:44:00Z</time>
      </trkpt>
      <trkpt lat="42.96073" lon="-0.26143">
        <ele>1457.19</ele>
        <time>2015-01-25T11:44:30Z</time>
      </trkpt>
      <trkpt lat="42.96073" lon="-0.26145">
        <ele>1458.131</ele>
        <time>2015-01-25T11:45:00Z</time>
      </trkpt>
      <trkpt lat="42.96073" lon="-0.26145">
        <ele>1457.83</ele>
        <time>2015-01-25T11:45:30Z</time>
      </trkpt>
      <trkpt lat="42.96078" lon="-0.26156">
        <ele>1457.253</ele>
        <time>2015-01-25T11:46:00Z</time>
      </trkpt>
      <trkpt lat="42.96086" lon="-0.26162">
        <ele>1455.738</ele>
        <time>2015-01-25T11:46:30Z</time>
      </trkpt>
      <trkpt lat="42.96085" lon="-0.26162">
        <ele>1455.861</ele>
        <time>2015-01-25T11:47:00Z</time>
      </trkpt>
      <trkpt lat="42.96085" lon="-0.26163">
        <ele>1455.559</ele>
        <time>2015-01-25T11:47:30Z</time>
      </trkpt>
      <trkpt lat="42.96084" lon="-0.26166">
        <ele>1456.106</ele>
        <time>2015-01-25T11:48:00Z</time>
      </trkpt>
      <trkpt lat="42.96101" lon="-0.26148">
        <ele>1456.768</ele>
        <time>2015-01-25T11:48:30Z</time>
      </trkpt>
      <trkpt lat="42.96118" lon="-0.26146">
        <ele>1457.434</ele>
        <time>2015-01-25T11:49:00Z</time>
      </trkpt>
      <trkpt lat="42.96119" lon="-0.26146">
        <ele>1457.258</ele>
        <time>2015-01-25T11:49:30Z</time>
      </trkpt>
      <trkpt lat="42.96119" lon="-0.26146">
        <ele>1458.158</ele>
        <time>2015-01-25T11:50:00Z</time>
      </trkpt>
      <trkpt lat="42.96133" lon="-0.26136">
        <ele>1458.23</ele>
        <time>2015-01-25T11:50:30Z</time>
      </trkpt>
      <trkpt lat="42.96143" lon="-0.26122">
        <ele>1458.618</ele>
        <time>2015-01-25T11:51:00Z</time>
      </trkpt>
      <trkpt lat="42.96148" lon="-0.26118">
        <ele>1458.8</ele>
        <time>2015-01-25T11:51:30Z</time>
      </trkpt>
      <trkpt lat="42.96147" lon="-0.26118">
        <ele>1458.921</ele>
        <time>2015-01-25T11:52:00Z</time>
      </trkpt>
      <trkpt lat="42.96148" lon="-0.26117">
        <ele>1459.322</ele>
        <time>2015-01-25T11:52:30Z</time>
      </trkpt>
      <trkpt lat="42.96147" lon="-0.26117">
        <ele>1459.492</ele>
        <time>2015-01-25T11:53:00Z</time>
      </trkpt>
      <trkpt lat="42.96147" lon="-0.26117">
        <ele>1460.266</ele>
        <time>2015-01-25T11:53:30Z</time>
      </trkpt>
      <trkpt lat="42.96145" lon="-0.26116">
        <ele>1461.01</ele>
        <time>2015-01-25T11:54:00Z</time>
      </trkpt>
      <trkpt lat="42.96146" lon="-0.26118">
        <ele>1460.566</ele>
        <time>2015-01-25T11:54:30Z</time>
      </trkpt>
      <trkpt lat="42.96152" lon="-0.26111">
        <ele>1461.071</ele>
        <time>2015-01-25T11:55:00Z</time>
      </trkpt>
      <trkpt lat="42.96171" lon="-0.26097">
        <ele>1460.781</ele>
        <time>2015-01-25T11:55:30Z</time>
      </trkpt>
      <trkpt lat="42.96188" lon="-0.26084">
        <ele>1458.509</ele>
        <time>2015-01-25T11:56:00Z</time>
      </trkpt>
      <trkpt lat="42.96214" lon="-0.26073">
        <ele>1454.445</ele>
        <time>2015-01-25T11:56:30Z</time>
      </trkpt>
      <trkpt lat="42.96226" lon="-0.26091">
        <ele>1452.729</ele>
        <time>2015-01-25T11:57:00Z</time>
      </trkpt>
      <trkpt lat="42.96232" lon="-0.26122">
        <ele>1451.343</ele>
        <time>2015-01-25T11:57:30Z</time>
      </trkpt>
      <trkpt lat="42.9624" lon="-0.26155">
        <ele>1453.014</ele>
        <time>2015-01-25T11:58:00Z</time>
      </trkpt>
      <trkpt lat="42.96243" lon="-0.26185">
        <ele>1456.283</ele>
        <time>2015-01-25T11:58:30Z</time>
      </trkpt>
      <trkpt lat="42.96245" lon="-0.26214">
        <ele>1458.567</ele>
        <time>2015-01-25T11:59:00Z</time>
      </trkpt>
      <trkpt lat="42.96244" lon="-0.26224">
        <ele>1459.147</ele>
        <time>2015-01-25T11:59:30Z</time>
      </trkpt>
      <trkpt lat="42.96244" lon="-0.26233">
        <ele>1458.572</ele>
        <time>2015-01-25T12:00:00Z</time>
      </trkpt>
      <trkpt lat="42.96253" lon="-0.26266">
        <ele>1456.337</ele>
        <time>2015-01-25T12:00:30Z</time>
      </trkpt>
      <trkpt lat="42.96277" lon="-0.26264">
        <ele>1452.938</ele>
        <time>2015-01-25T12:01:00Z</time>
      </trkpt>
      <trkpt lat="42.96296" lon="-0.26251">
        <ele>1451.09</ele>
        <time>2015-01-25T12:01:30Z</time>
      </trkpt>
      <trkpt lat="42.96296" lon="-0.26251">
        <ele>1451.074</ele>
        <time>2015-01-25T12:02:00Z</time>
      </trkpt>
      <trkpt lat="42.96295" lon="-0.2625">
        <ele>1450.856</ele>
        <time>2015-01-25T12:02:30Z</time>
      </trkpt>
      <trkpt lat="42.96294" lon="-0.2625">
        <ele>1451.457</ele>
        <time>2015-01-25T12:03:00Z</time>
      </trkpt>
      <trkpt lat="42.96318" lon="-0.2624">
        <ele>1448.252</ele>
        <time>2015-01-25T12:03:30Z</time>
      </trkpt>
      <trkpt lat="42.96336" lon="-0.26241">
        <ele>1445.755</ele>
        <time>2015-01-25T12:04:00Z</time>
      </trkpt>
      <trkpt lat="42.96362" lon="-0.26249">
        <ele>1442.949</ele>
        <time>2015-01-25T12:04:30Z</time>
      </trkpt>
      <trkpt lat="42.96387" lon="-0.26262">
        <ele>1440.789</ele>
        <time>2015-01-25T12:05:00Z</time>
      </trkpt>
      <trkpt lat="42.96411" lon="-0.26276">
        <ele>1439.435</ele>
        <time>2015-01-25T12:05:30Z</time>
      </trkpt>
      <trkpt lat="42.96428" lon="-0.26307">
        <ele>1439.988</ele>
        <time>2015-01-25T12:06:00Z</time>
      </trkpt>
      <trkpt lat="42.9643" lon="-0.2631">
        <ele>1440.495</ele>
        <time>2015-01-25T12:06:30Z</time>
      </trkpt>
      <trkpt lat="42.96427" lon="-0.2631">
        <ele>1439.449</ele>
        <time>2015-01-25T12:07:00Z</time>
      </trkpt>
      <trkpt lat="42.96426" lon="-0.26309">
        <ele>1439.518</ele>
        <time>2015-01-25T12:07:30Z</time>
      </trkpt>
      <trkpt lat="42.96426" lon="-0.26308">
        <ele>1439.49</ele>
        <time>2015-01-25T12:08:00Z</time>
      </trkpt>
      <trkpt lat="42.96428" lon="-0.26309">
        <ele>1441.194</ele>
        <time>2015-01-25T12:08:30Z</time>
      </trkpt>
      <trkpt lat="42.96431" lon="-0.26307">
        <ele>1440.801</ele>
        <time>2015-01-25T12:09:00Z</time>
      </trkpt>
      <trkpt lat="42.96438" lon="-0.26317">
        <ele>1441.069</ele>
        <time>2015-01-25T12:09:30Z</time>
      </trkpt>
      <trkpt lat="42.96456" lon="-0.26349">
        <ele>1441.658</ele>
        <time>2015-01-25T12:10:00Z</time>
      </trkpt>
      <trkpt lat="42.96477" lon="-0.26372">
        <ele>1443.1</ele>
        <time>2015-01-25T12:10:30Z</time>
      </trkpt>
      <trkpt lat="42.96494" lon="-0.26399">
        <ele>1444.933</ele>
        <time>2015-01-25T12:11:00Z</time>
      </trkpt>
      <trkpt lat="42.96511" lon="-0.26428">
        <ele>1444.843</ele>
        <time>2015-01-25T12:11:30Z</time>
      </trkpt>
      <trkpt lat="42.96531" lon="-0.26454">
        <ele>1443.636</ele>
        <time>2015-01-25T12:12:00Z</time>
      </trkpt>
      <trkpt lat="42.96558" lon="-0.26465">
        <ele>1443.541</ele>
        <time>2015-01-25T12:12:30Z</time>
      </trkpt>
      <trkpt lat="42.9658" lon="-0.26478">
        <ele>1444.609</ele>
        <time>2015-01-25T12:13:00Z</time>
      </trkpt>
      <trkpt lat="42.96608" lon="-0.26488">
        <ele>1444.651</ele>
        <time>2015-01-25T12:13:30Z</time>
      </trkpt>
      <trkpt lat="42.96632" lon="-0.26502">
        <ele>1445.536</ele>
        <time>2015-01-25T12:14:00Z</time>
      </trkpt>
      <trkpt lat="42.96658" lon="-0.26511">
        <ele>1446.874</ele>
        <time>2015-01-25T12:14:30Z</time>
      </trkpt>
      <trkpt lat="42.96685" lon="-0.26519">
        <ele>1447.542</ele>
        <time>2015-01-25T12:15:00Z</time>
      </trkpt>
      <trkpt lat="42.96708" lon="-0.2652">
        <ele>1447.766</ele>
        <time>2015-01-25T12:15:30Z</time>
      </trkpt>
      <trkpt lat="42.96733" lon="-0.2651">
        <ele>1447.755</ele>
        <time>2015-01-25T12:16:00Z</time>
      </trkpt>
      <trkpt lat="42.96738" lon="-0.26507">
        <ele>1447.791</ele>
        <time>2015-01-25T12:16:30Z</time>
      </trkpt>
      <trkpt lat="42.96738" lon="-0.2651">
        <ele>1447.311</ele>
        <time>2015-01-25T12:17:00Z</time>
      </trkpt>
      <trkpt lat="42.96738" lon="-0.26509">
        <ele>1447.921</ele>
        <time>2015-01-25T12:17:30Z</time>
      </trkpt>
      <trkpt lat="42.96739" lon="-0.26511">
        <ele>1447.962</ele>
        <time>2015-01-25T12:18:00Z</time>
      </trkpt>
      <trkpt lat="42.96738" lon="-0.26511">
        <ele>1448.583</ele>
        <time>2015-01-25T12:18:30Z</time>
      </trkpt>
      <trkpt lat="42.96738" lon="-0.26511">
        <ele>1448.709</ele>
        <time>2015-01-25T12:19:00Z</time>
      </trkpt>
      <trkpt lat="42.96738" lon="-0.26511">
        <ele>1448.758</ele>
        <time>2015-01-25T12:19:30Z</time>
      </trkpt>
      <trkpt lat="42.96738" lon="-0.26511">
        <ele>1448.414</ele>
        <time>2015-01-25T12:20:00Z</time>
      </trkpt>
      <trkpt lat="42.96739" lon="-0.26511">
        <ele>1447.628</ele>
        <time>2015-01-25T12:20:30Z</time>
      </trkpt>
      <trkpt lat="42.96739" lon="-0.26511">
        <ele>1447.915</ele>
        <time>2015-01-25T12:21:00Z</time>
      </trkpt>
      <trkpt lat="42.96739" lon="-0.26511">
        <ele>1448.209</ele>
        <time>2015-01-25T12:21:30Z</time>
      </trkpt>
      <trkpt lat="42.96739" lon="-0.26511">
        <ele>1448.521</ele>
        <time>2015-01-25T12:22:00Z</time>
      </trkpt>
      <trkpt lat="42.9674" lon="-0.26511">
        <ele>1448.447</ele>
        <time>2015-01-25T12:22:30Z</time>
      </trkpt>
      <trkpt lat="42.96739" lon="-0.26512">
        <ele>1449.234</ele>
        <time>2015-01-25T12:23:00Z</time>
      </trkpt>
      <trkpt lat="42.9674" lon="-0.26511">
        <ele>1450.094</ele>
        <time>2015-01-25T12:23:30Z</time>
      </trkpt>
      <trkpt lat="42.9674" lon="-0.26511">
        <ele>1450.226</ele>
        <time>2015-01-25T12:24:00Z</time>
      </trkpt>
      <trkpt lat="42.96758" lon="-0.26502">
        <ele>1451.11</ele>
        <time>2015-01-25T12:24:30Z</time>
      </trkpt>
      <trkpt lat="42.96762" lon="-0.265">
        <ele>1451.285</ele>
        <time>2015-01-25T12:25:00Z</time>
      </trkpt>
      <trkpt lat="42.96788" lon="-0.26492">
        <ele>1453.682</ele>
        <time>2015-01-25T12:25:30Z</time>
      </trkpt>
      <trkpt lat="42.96802" lon="-0.26487">
        <ele>1454.877</ele>
        <time>2015-01-25T12:26:00Z</time>
      </trkpt>
      <trkpt lat="42.96824" lon="-0.26476">
        <ele>1457.164</ele>
        <time>2015-01-25T12:26:30Z</time>
      </trkpt>
      <trkpt lat="42.96837" lon="-0.26455">
        <ele>1458.654</ele>
        <time>2015-01-25T12:27:00Z</time>
      </trkpt>
      <trkpt lat="42.96852" lon="-0.26437">
        <ele>1460.641</ele>
        <time>2015-01-25T12:27:30Z</time>
      </trkpt>
      <trkpt lat="42.96856" lon="-0.26434">
        <ele>1461.667</ele>
        <time>2015-01-25T12:28:00Z</time>
      </trkpt>
      <trkpt lat="42.96858" lon="-0.26432">
        <ele>1461.581</ele>
        <time>2015-01-25T12:28:30Z</time>
      </trkpt>
      <trkpt lat="42.9688" lon="-0.26424">
        <ele>1463.618</ele>
        <time>2015-01-25T12:29:00Z</time>
      </trkpt>
      <trkpt lat="42.96903" lon="-0.26424">
        <ele>1464.391</ele>
        <time>2015-01-25T12:29:30Z</time>
      </trkpt>
      <trkpt lat="42.96909" lon="-0.26422">
        <ele>1464.433</ele>
        <time>2015-01-25T12:30:00Z</time>
      </trkpt>
      <trkpt lat="42.96925" lon="-0.26422">
        <ele>1464.647</ele>
        <time>2015-01-25T12:30:30Z</time>
      </trkpt>
      <trkpt lat="42.96949" lon="-0.26444">
        <ele>1462.51</ele>
        <time>2015-01-25T12:31:00Z</time>
      </trkpt>
      <trkpt lat="42.96969" lon="-0.26441">
        <ele>1459.839</ele>
        <time>2015-01-25T12:31:30Z</time>
      </trkpt>
      <trkpt lat="42.96993" lon="-0.26442">
        <ele>1458.875</ele>
        <time>2015-01-25T12:32:00Z</time>
      </trkpt>
      <trkpt lat="42.97014" lon="-0.2646">
        <ele>1455.833</ele>
        <time>2015-01-25T12:32:30Z</time>
      </trkpt>
      <trkpt lat="42.9703" lon="-0.26483">
        <ele>1455.458</ele>
        <time>2015-01-25T12:33:00Z</time>
      </trkpt>
      <trkpt lat="42.97046" lon="-0.26511">
        <ele>1456.55</ele>
        <time>2015-01-25T12:33:30Z</time>
      </trkpt>
      <trkpt lat="42.97048" lon="-0.26525">
        <ele>1457.421</ele>
        <time>2015-01-25T12:34:00Z</time>
      </trkpt>
      <trkpt lat="42.97048" lon="-0.26525">
        <ele>1457.422</ele>
        <time>2015-01-25T12:34:30Z</time>
      </trkpt>
      <trkpt lat="42.97048" lon="-0.26525">
        <ele>1457.737</ele>
        <time>2015-01-25T12:35:00Z</time>
      </trkpt>
      <trkpt lat="42.97048" lon="-0.26529">
        <ele>1458.151</ele>
        <time>2015-01-25T12:35:30Z</time>
      </trkpt>
      <trkpt lat="42.97052" lon="-0.26559">
        <ele>1459.258</ele>
        <time>2015-01-25T12:36:00Z</time>
      </trkpt>
      <trkpt lat="42.97062" lon="-0.26589">
        <ele>1458.982</ele>
        <time>2015-01-25T12:36:30Z</time>
      </trkpt>
      <trkpt lat="42.97065" lon="-0.26595">
        <ele>1458.617</ele>
        <time>2015-01-25T12:37:00Z</time>
      </trkpt>
      <trkpt lat="42.97065" lon="-0.26595">
        <ele>1458.885</ele>
        <time>2015-01-25T12:37:30Z</time>
      </trkpt>
      <trkpt lat="42.97074" lon="-0.26612">
        <ele>1459.311</ele>
        <time>2015-01-25T12:38:00Z</time>
      </trkpt>
      <trkpt lat="42.97091" lon="-0.26639">
        <ele>1459.496</ele>
        <time>2015-01-25T12:38:30Z</time>
      </trkpt>
      <trkpt lat="42.97098" lon="-0.26674">
        <ele>1459.634</ele>
        <time>2015-01-25T12:39:00Z</time>
      </trkpt>
      <trkpt lat="42.97107" lon="-0.26707">
        <ele>1460.631</ele>
        <time>2015-01-25T12:39:30Z</time>
      </trkpt>
      <trkpt lat="42.97113" lon="-0.26716">
        <ele>1461.924</ele>
        <time>2015-01-25T12:40:00Z</time>
      </trkpt>
      <trkpt lat="42.97113" lon="-0.26716">
        <ele>1462.089</ele>
        <time>2015-01-25T12:40:30Z</time>
      </trkpt>
      <trkpt lat="42.97113" lon="-0.26716">
        <ele>1462.282</ele>
        <time>2015-01-25T12:41:00Z</time>
      </trkpt>
      <trkpt lat="42.97113" lon="-0.26716">
        <ele>1461.986</ele>
        <time>2015-01-25T12:41:30Z</time>
      </trkpt>
      <trkpt lat="42.97113" lon="-0.26716">
        <ele>1462.826</ele>
        <time>2015-01-25T12:42:00Z</time>
      </trkpt>
      <trkpt lat="42.9712" lon="-0.26723">
        <ele>1463.111</ele>
        <time>2015-01-25T12:42:30Z</time>
      </trkpt>
      <trkpt lat="42.97138" lon="-0.26723">
        <ele>1464.638</ele>
        <time>2015-01-25T12:43:00Z</time>
      </trkpt>
      <trkpt lat="42.97161" lon="-0.2672">
        <ele>1465.146</ele>
        <time>2015-01-25T12:43:30Z</time>
      </trkpt>
      <trkpt lat="42.97186" lon="-0.2672">
        <ele>1466.556</ele>
        <time>2015-01-25T12:44:00Z</time>
      </trkpt>
      <trkpt lat="42.97207" lon="-0.26717">
        <ele>1468.125</ele>
        <time>2015-01-25T12:44:30Z</time>
      </trkpt>
      <trkpt lat="42.97231" lon="-0.26708">
        <ele>1469.876</ele>
        <time>2015-01-25T12:45:00Z</time>
      </trkpt>
      <trkpt lat="42.9725" lon="-0.267">
        <ele>1471.424</ele>
        <time>2015-01-25T12:45:30Z</time>
      </trkpt>
      <trkpt lat="42.97266" lon="-0.26689">
        <ele>1472.115</ele>
        <time>2015-01-25T12:46:00Z</time>
      </trkpt>
      <trkpt lat="42.97266" lon="-0.26689">
        <ele>1472.203</ele>
        <time>2015-01-25T12:46:30Z</time>
      </trkpt>
      <trkpt lat="42.97267" lon="-0.26689">
        <ele>1472.616</ele>
        <time>2015-01-25T12:47:00Z</time>
      </trkpt>
      <trkpt lat="42.97267" lon="-0.26689">
        <ele>1472.661</ele>
        <time>2015-01-25T12:47:30Z</time>
      </trkpt>
      <trkpt lat="42.97284" lon="-0.26675">
        <ele>1473.831</ele>
        <time>2015-01-25T12:48:00Z</time>
      </trkpt>
      <trkpt lat="42.97306" lon="-0.26655">
        <ele>1475.4</ele>
        <time>2015-01-25T12:48:30Z</time>
      </trkpt>
      <trkpt lat="42.97322" lon="-0.26629">
        <ele>1478.099</ele>
        <time>2015-01-25T12:49:00Z</time>
      </trkpt>
      <trkpt lat="42.97334" lon="-0.26603">
        <ele>1480.073</ele>
        <time>2015-01-25T12:49:30Z</time>
      </trkpt>
      <trkpt lat="42.97338" lon="-0.26591">
        <ele>1481.494</ele>
        <time>2015-01-25T12:50:00Z</time>
      </trkpt>
      <trkpt lat="42.97339" lon="-0.26591">
        <ele>1481.531</ele>
        <time>2015-01-25T12:50:30Z</time>
      </trkpt>
      <trkpt lat="42.97339" lon="-0.26591">
        <ele>1481.107</ele>
        <time>2015-01-25T12:51:00Z</time>
      </trkpt>
      <trkpt lat="42.97339" lon="-0.26591">
        <ele>1481.303</ele>
        <time>2015-01-25T12:51:30Z</time>
      </trkpt>
      <trkpt lat="42.97339" lon="-0.26591">
        <ele>1480.993</ele>
        <time>2015-01-25T12:52:00Z</time>
      </trkpt>
      <trkpt lat="42.97339" lon="-0.26592">
        <ele>1481.171</ele>
        <time>2015-01-25T12:52:30Z</time>
      </trkpt>
      <trkpt lat="42.97339" lon="-0.26592">
        <ele>1481.424</ele>
        <time>2015-01-25T12:53:00Z</time>
      </trkpt>
      <trkpt lat="42.97339" lon="-0.26592">
        <ele>1481.557</ele>
        <time>2015-01-25T12:53:30Z</time>
      </trkpt>
      <trkpt lat="42.97339" lon="-0.26593">
        <ele>1481.62</ele>
        <time>2015-01-25T12:54:00Z</time>
      </trkpt>
      <trkpt lat="42.97339" lon="-0.26593">
        <ele>1481.409</ele>
        <time>2015-01-25T12:54:30Z</time>
      </trkpt>
      <trkpt lat="42.97339" lon="-0.26593">
        <ele>1481.435</ele>
        <time>2015-01-25T12:55:00Z</time>
      </trkpt>
      <trkpt lat="42.97339" lon="-0.26593">
        <ele>1481.337</ele>
        <time>2015-01-25T12:55:30Z</time>
      </trkpt>
      <trkpt lat="42.97339" lon="-0.26593">
        <ele>1480.923</ele>
        <time>2015-01-25T12:56:00Z</time>
      </trkpt>
      <trkpt lat="42.97339" lon="-0.26593">
        <ele>1481.32</ele>
        <time>2015-01-25T12:56:30Z</time>
      </trkpt>
      <trkpt lat="42.97339" lon="-0.26593">
        <ele>1481.165</ele>
        <time>2015-01-25T12:57:00Z</time>
      </trkpt>
      <trkpt lat="42.97339" lon="-0.26593">
        <ele>1481.571</ele>
        <time>2015-01-25T12:57:30Z</time>
      </trkpt>
      <trkpt lat="42.9734" lon="-0.26593">
        <ele>1481.417</ele>
        <time>2015-01-25T12:58:00Z</time>
      </trkpt>
      <trkpt lat="42.9734" lon="-0.26593">
        <ele>1481.586</ele>
        <time>2015-01-25T12:58:30Z</time>
      </trkpt>
      <trkpt lat="42.9734" lon="-0.26593">
        <ele>1481.357</ele>
        <time>2015-01-25T12:59:00Z</time>
      </trkpt>
      <trkpt lat="42.97339" lon="-0.26593">
        <ele>1481.43</ele>
        <time>2015-01-25T12:59:30Z</time>
      </trkpt>
      <trkpt lat="42.97344" lon="-0.2657">
        <ele>1483.431</ele>
        <time>2015-01-25T13:00:00Z</time>
      </trkpt>
      <trkpt lat="42.97345" lon="-0.26537">
        <ele>1485.19</ele>
        <time>2015-01-25T13:00:30Z</time>
      </trkpt>
      <trkpt lat="42.97343" lon="-0.26524">
        <ele>1487.334</ele>
        <time>2015-01-25T13:01:00Z</time>
      </trkpt>
      <trkpt lat="42.97343" lon="-0.26524">
        <ele>1487.085</ele>
        <time>2015-01-25T13:01:30Z</time>
      </trkpt>
      <trkpt lat="42.97333" lon="-0.2651">
        <ele>1489.288</ele>
        <time>2015-01-25T13:02:00Z</time>
      </trkpt>
      <trkpt lat="42.97326" lon="-0.2651">
        <ele>1488.921</ele>
        <time>2015-01-25T13:02:30Z</time>
      </trkpt>
      <trkpt lat="42.97301" lon="-0.26507">
        <ele>1491.257</ele>
        <time>2015-01-25T13:03:00Z</time>
      </trkpt>
      <trkpt lat="42.97281" lon="-0.26507">
        <ele>1493.487</ele>
        <time>2015-01-25T13:03:30Z</time>
      </trkpt>
      <trkpt lat="42.97278" lon="-0.26509">
        <ele>1494.08</ele>
        <time>2015-01-25T13:04:00Z</time>
      </trkpt>
      <trkpt lat="42.9727" lon="-0.26515">
        <ele>1495.878</ele>
        <time>2015-01-25T13:04:30Z</time>
      </trkpt>
      <trkpt lat="42.97261" lon="-0.26516">
        <ele>1498.123</ele>
        <time>2015-01-25T13:05:00Z</time>
      </trkpt>
      <trkpt lat="42.9725" lon="-0.26517">
        <ele>1500.895</ele>
        <time>2015-01-25T13:05:30Z</time>
      </trkpt>
      <trkpt lat="42.97243" lon="-0.26512">
        <ele>1502.86</ele>
        <time>2015-01-25T13:06:00Z</time>
      </trkpt>
      <trkpt lat="42.97242" lon="-0.26513">
        <ele>1503.596</ele>
        <time>2015-01-25T13:06:30Z</time>
      </trkpt>
      <trkpt lat="42.97242" lon="-0.26513">
        <ele>1503.352</ele>
        <time>2015-01-25T13:07:00Z</time>
      </trkpt>
      <trkpt lat="42.97242" lon="-0.26513">
        <ele>1503.44</ele>
        <time>2015-01-25T13:07:30Z</time>
      </trkpt>
      <trkpt lat="42.97242" lon="-0.26506">
        <ele>1503.681</ele>
        <time>2015-01-25T13:08:00Z</time>
      </trkpt>
      <trkpt lat="42.97235" lon="-0.26475">
        <ele>1505.063</ele>
        <time>2015-01-25T13:08:30Z</time>
      </trkpt>
      <trkpt lat="42.97226" lon="-0.26448">
        <ele>1506.863</ele>
        <time>2015-01-25T13:09:00Z</time>
      </trkpt>
      <trkpt lat="42.97212" lon="-0.26426">
        <ele>1507.282</ele>
        <time>2015-01-25T13:09:30Z</time>
      </trkpt>
      <trkpt lat="42.97205" lon="-0.26407">
        <ele>1508.18</ele>
        <time>2015-01-25T13:10:00Z</time>
      </trkpt>
      <trkpt lat="42.97201" lon="-0.26379">
        <ele>1509.349</ele>
        <time>2015-01-25T13:10:30Z</time>
      </trkpt>
      <trkpt lat="42.972" lon="-0.26351">
        <ele>1510.92</ele>
        <time>2015-01-25T13:11:00Z</time>
      </trkpt>
      <trkpt lat="42.972" lon="-0.26325">
        <ele>1512.59</ele>
        <time>2015-01-25T13:11:30Z</time>
      </trkpt>
      <trkpt lat="42.972" lon="-0.26297">
        <ele>1514.328</ele>
        <time>2015-01-25T13:12:00Z</time>
      </trkpt>
      <trkpt lat="42.97201" lon="-0.2628">
        <ele>1515.822</ele>
        <time>2015-01-25T13:12:30Z</time>
      </trkpt>
      <trkpt lat="42.972" lon="-0.2628">
        <ele>1516.384</ele>
        <time>2015-01-25T13:13:00Z</time>
      </trkpt>
      <trkpt lat="42.972" lon="-0.2628">
        <ele>1516.345</ele>
        <time>2015-01-25T13:13:30Z</time>
      </trkpt>
      <trkpt lat="42.972" lon="-0.2628">
        <ele>1515.554</ele>
        <time>2015-01-25T13:14:00Z</time>
      </trkpt>
      <trkpt lat="42.972" lon="-0.2628">
        <ele>1515.453</ele>
        <time>2015-01-25T13:14:30Z</time>
      </trkpt>
      <trkpt lat="42.972" lon="-0.2628">
        <ele>1515.237</ele>
        <time>2015-01-25T13:15:00Z</time>
      </trkpt>
      <trkpt lat="42.97202" lon="-0.26257">
        <ele>1516.322</ele>
        <time>2015-01-25T13:15:30Z</time>
      </trkpt>
      <trkpt lat="42.97202" lon="-0.26234">
        <ele>1518.103</ele>
        <time>2015-01-25T13:16:00Z</time>
      </trkpt>
      <trkpt lat="42.97203" lon="-0.26212">
        <ele>1519.802</ele>
        <time>2015-01-25T13:16:30Z</time>
      </trkpt>
      <trkpt lat="42.97206" lon="-0.26196">
        <ele>1521.072</ele>
        <time>2015-01-25T13:17:00Z</time>
      </trkpt>
      <trkpt lat="42.97208" lon="-0.26173">
        <ele>1522.18</ele>
        <time>2015-01-25T13:17:30Z</time>
      </trkpt>
      <trkpt lat="42.97208" lon="-0.26151">
        <ele>1523.79</ele>
        <time>2015-01-25T13:18:00Z</time>
      </trkpt>
      <trkpt lat="42.97208" lon="-0.2613">
        <ele>1525.853</ele>
        <time>2015-01-25T13:18:30Z</time>
      </trkpt>
      <trkpt lat="42.97209" lon="-0.2613">
        <ele>1526.059</ele>
        <time>2015-01-25T13:19:00Z</time>
      </trkpt>
      <trkpt lat="42.97209" lon="-0.26124">
        <ele>1526.283</ele>
        <time>2015-01-25T13:19:30Z</time>
      </trkpt>
      <trkpt lat="42.97206" lon="-0.26091">
        <ele>1528.584</ele>
        <time>2015-01-25T13:20:00Z</time>
      </trkpt>
      <trkpt lat="42.97202" lon="-0.26065">
        <ele>1530.282</ele>
        <time>2015-01-25T13:20:30Z</time>
      </trkpt>
      <trkpt lat="42.97195" lon="-0.2604">
        <ele>1531.735</ele>
        <time>2015-01-25T13:21:00Z</time>
      </trkpt>
      <trkpt lat="42.97188" lon="-0.26014">
        <ele>1533.198</ele>
        <time>2015-01-25T13:21:30Z</time>
      </trkpt>
      <trkpt lat="42.97181" lon="-0.25992">
        <ele>1535.628</ele>
        <time>2015-01-25T13:22:00Z</time>
      </trkpt>
      <trkpt lat="42.97178" lon="-0.25992">
        <ele>1537.022</ele>
        <time>2015-01-25T13:22:30Z</time>
      </trkpt>
      <trkpt lat="42.97178" lon="-0.25992">
        <ele>1537.099</ele>
        <time>2015-01-25T13:23:00Z</time>
      </trkpt>
      <trkpt lat="42.97178" lon="-0.25993">
        <ele>1537.066</ele>
        <time>2015-01-25T13:23:30Z</time>
      </trkpt>
      <trkpt lat="42.97178" lon="-0.25993">
        <ele>1537.252</ele>
        <time>2015-01-25T13:24:00Z</time>
      </trkpt>
      <trkpt lat="42.97177" lon="-0.25993">
        <ele>1537.642</ele>
        <time>2015-01-25T13:24:30Z</time>
      </trkpt>
      <trkpt lat="42.97177" lon="-0.25991">
        <ele>1537.811</ele>
        <time>2015-01-25T13:25:00Z</time>
      </trkpt>
      <trkpt lat="42.97177" lon="-0.25992">
        <ele>1537.467</ele>
        <time>2015-01-25T13:25:30Z</time>
      </trkpt>
      <trkpt lat="42.97176" lon="-0.25991">
        <ele>1536.118</ele>
        <time>2015-01-25T13:26:00Z</time>
      </trkpt>
      <trkpt lat="42.97176" lon="-0.25991">
        <ele>1535.827</ele>
        <time>2015-01-25T13:26:30Z</time>
      </trkpt>
      <trkpt lat="42.97176" lon="-0.25991">
        <ele>1537.396</ele>
        <time>2015-01-25T13:27:00Z</time>
      </trkpt>
      <trkpt lat="42.97177" lon="-0.25992">
        <ele>1537.642</ele>
        <time>2015-01-25T13:27:30Z</time>
      </trkpt>
      <trkpt lat="42.97177" lon="-0.25992">
        <ele>1538.393</ele>
        <time>2015-01-25T13:28:00Z</time>
      </trkpt>
      <trkpt lat="42.97177" lon="-0.25992">
        <ele>1538.522</ele>
        <time>2015-01-25T13:28:30Z</time>
      </trkpt>
      <trkpt lat="42.97177" lon="-0.25992">
        <ele>1538.495</ele>
        <time>2015-01-25T13:29:00Z</time>
      </trkpt>
      <trkpt lat="42.97177" lon="-0.25992">
        <ele>1539.084</ele>
        <time>2015-01-25T13:29:30Z</time>
      </trkpt>
      <trkpt lat="42.97177" lon="-0.25992">
        <ele>1538.64</ele>
        <time>2015-01-25T13:30:00Z</time>
      </trkpt>
      <trkpt lat="42.97177" lon="-0.25992">
        <ele>1538.688</ele>
        <time>2015-01-25T13:30:30Z</time>
      </trkpt>
      <trkpt lat="42.97177" lon="-0.25992">
        <ele>1538.499</ele>
        <time>2015-01-25T13:31:00Z</time>
      </trkpt>
      <trkpt lat="42.97177" lon="-0.25992">
        <ele>1538.384</ele>
        <time>2015-01-25T13:31:30Z</time>
      </trkpt>
      <trkpt lat="42.97177" lon="-0.25992">
        <ele>1538.886</ele>
        <time>2015-01-25T13:32:00Z</time>
      </trkpt>
      <trkpt lat="42.97177" lon="-0.25992">
        <ele>1538.429</ele>
        <time>2015-01-25T13:32:30Z</time>
      </trkpt>
      <trkpt lat="42.97177" lon="-0.25992">
        <ele>1538.781</ele>
        <time>2015-01-25T13:33:00Z</time>
      </trkpt>
      <trkpt lat="42.97177" lon="-0.25992">
        <ele>1538.197</ele>
        <time>2015-01-25T13:33:30Z</time>
      </trkpt>
      <trkpt lat="42.97176" lon="-0.25992">
        <ele>1537.977</ele>
        <time>2015-01-25T13:34:00Z</time>
      </trkpt>
      <trkpt lat="42.97176" lon="-0.25992">
        <ele>1538.181</ele>
        <time>2015-01-25T13:34:30Z</time>
      </trkpt>
      <trkpt lat="42.97181" lon="-0.26019">
        <ele>1538.224</ele>
        <time>2015-01-25T13:35:00Z</time>
      </trkpt>
      <trkpt lat="42.97181" lon="-0.26019">
        <ele>1538.061</ele>
        <time>2015-01-25T13:35:30Z</time>
      </trkpt>
      <trkpt lat="42.97181" lon="-0.26019">
        <ele>1538.126</ele>
        <time>2015-01-25T13:36:00Z</time>
      </trkpt>
      <trkpt lat="42.97182" lon="-0.26025">
        <ele>1537.859</ele>
        <time>2015-01-25T13:36:30Z</time>
      </trkpt>
      <trkpt lat="42.97187" lon="-0.26071">
        <ele>1537.76</ele>
        <time>2015-01-25T13:37:00Z</time>
      </trkpt>
      <trkpt lat="42.97186" lon="-0.26108">
        <ele>1538.187</ele>
        <time>2015-01-25T13:37:30Z</time>
      </trkpt>
      <trkpt lat="42.97179" lon="-0.26145">
        <ele>1538.831</ele>
        <time>2015-01-25T13:38:00Z</time>
      </trkpt>
      <trkpt lat="42.97168" lon="-0.26179">
        <ele>1539.833</ele>
        <time>2015-01-25T13:38:30Z</time>
      </trkpt>
      <trkpt lat="42.97151" lon="-0.26206">
        <ele>1541.958</ele>
        <time>2015-01-25T13:39:00Z</time>
      </trkpt>
      <trkpt lat="42.97133" lon="-0.26226">
        <ele>1545.11</ele>
        <time>2015-01-25T13:39:30Z</time>
      </trkpt>
      <trkpt lat="42.97116" lon="-0.26241">
        <ele>1547.665</ele>
        <time>2015-01-25T13:40:00Z</time>
      </trkpt>
      <trkpt lat="42.97101" lon="-0.26249">
        <ele>1549.021</ele>
        <time>2015-01-25T13:40:30Z</time>
      </trkpt>
      <trkpt lat="42.97101" lon="-0.26249">
        <ele>1549.647</ele>
        <time>2015-01-25T13:41:00Z</time>
      </trkpt>
      <trkpt lat="42.97101" lon="-0.26249">
        <ele>1549.478</ele>
        <time>2015-01-25T13:41:30Z</time>
      </trkpt>
      <trkpt lat="42.97101" lon="-0.26249">
        <ele>1549.069</ele>
        <time>2015-01-25T13:42:00Z</time>
      </trkpt>
      <trkpt lat="42.97101" lon="-0.26249">
        <ele>1549.765</ele>
        <time>2015-01-25T13:42:30Z</time>
      </trkpt>
      <trkpt lat="42.97101" lon="-0.26249">
        <ele>1549.618</ele>
        <time>2015-01-25T13:43:00Z</time>
      </trkpt>
      <trkpt lat="42.97101" lon="-0.26248">
        <ele>1549.803</ele>
        <time>2015-01-25T13:43:30Z</time>
      </trkpt>
      <trkpt lat="42.97085" lon="-0.26246">
        <ele>1550.743</ele>
        <time>2015-01-25T13:44:00Z</time>
      </trkpt>
      <trkpt lat="42.97062" lon="-0.26237">
        <ele>1552.651</ele>
        <time>2015-01-25T13:44:30Z</time>
      </trkpt>
      <trkpt lat="42.97039" lon="-0.26225">
        <ele>1554.818</ele>
        <time>2015-01-25T13:45:00Z</time>
      </trkpt>
      <trkpt lat="42.97017" lon="-0.26213">
        <ele>1555.464</ele>
        <time>2015-01-25T13:45:30Z</time>
      </trkpt>
      <trkpt lat="42.96995" lon="-0.26215">
        <ele>1557.416</ele>
        <time>2015-01-25T13:46:00Z</time>
      </trkpt>
      <trkpt lat="42.96974" lon="-0.26227">
        <ele>1560.139</ele>
        <time>2015-01-25T13:46:30Z</time>
      </trkpt>
      <trkpt lat="42.96951" lon="-0.26216">
        <ele>1562.296</ele>
        <time>2015-01-25T13:47:00Z</time>
      </trkpt>
      <trkpt lat="42.96933" lon="-0.2619">
        <ele>1563.908</ele>
        <time>2015-01-25T13:47:30Z</time>
      </trkpt>
      <trkpt lat="42.96914" lon="-0.26166">
        <ele>1565.261</ele>
        <time>2015-01-25T13:48:00Z</time>
      </trkpt>
      <trkpt lat="42.96891" lon="-0.26149">
        <ele>1566.091</ele>
        <time>2015-01-25T13:48:30Z</time>
      </trkpt>
      <trkpt lat="42.96869" lon="-0.26135">
        <ele>1568.339</ele>
        <time>2015-01-25T13:49:00Z</time>
      </trkpt>
      <trkpt lat="42.96864" lon="-0.26134">
        <ele>1569.87</ele>
        <time>2015-01-25T13:49:30Z</time>
      </trkpt>
      <trkpt lat="42.96864" lon="-0.26134">
        <ele>1569.119</ele>
        <time>2015-01-25T13:50:00Z</time>
      </trkpt>
      <trkpt lat="42.9685" lon="-0.26127">
        <ele>1570.314</ele>
        <time>2015-01-25T13:50:30Z</time>
      </trkpt>
      <trkpt lat="42.96827" lon="-0.26114">
        <ele>1572.224</ele>
        <time>2015-01-25T13:51:00Z</time>
      </trkpt>
      <trkpt lat="42.96805" lon="-0.261">
        <ele>1575.238</ele>
        <time>2015-01-25T13:51:30Z</time>
      </trkpt>
      <trkpt lat="42.9679" lon="-0.2609">
        <ele>1576.199</ele>
        <time>2015-01-25T13:52:00Z</time>
      </trkpt>
      <trkpt lat="42.96771" lon="-0.26078">
        <ele>1577.234</ele>
        <time>2015-01-25T13:52:30Z</time>
      </trkpt>
      <trkpt lat="42.96762" lon="-0.26066">
        <ele>1578.18</ele>
        <time>2015-01-25T13:53:00Z</time>
      </trkpt>
      <trkpt lat="42.96761" lon="-0.26064">
        <ele>1577.996</ele>
        <time>2015-01-25T13:53:30Z</time>
      </trkpt>
      <trkpt lat="42.96761" lon="-0.26064">
        <ele>1578.332</ele>
        <time>2015-01-25T13:54:00Z</time>
      </trkpt>
      <trkpt lat="42.96761" lon="-0.26064">
        <ele>1578.025</ele>
        <time>2015-01-25T13:54:30Z</time>
      </trkpt>
      <trkpt lat="42.96761" lon="-0.26064">
        <ele>1577.917</ele>
        <time>2015-01-25T13:55:00Z</time>
      </trkpt>
      <trkpt lat="42.96763" lon="-0.26042">
        <ele>1577.349</ele>
        <time>2015-01-25T13:55:30Z</time>
      </trkpt>
      <trkpt lat="42.96763" lon="-0.26032">
        <ele>1577.599</ele>
        <time>2015-01-25T13:56:00Z</time>
      </trkpt>
      <trkpt lat="42.96741" lon="-0.26012">
        <ele>1576.843</ele>
        <time>2015-01-25T13:56:30Z</time>
      </trkpt>
      <trkpt lat="42.96718" lon="-0.25991">
        <ele>1575.862</ele>
        <time>2015-01-25T13:57:00Z</time>
      </trkpt>
      <trkpt lat="42.96694" lon="-0.25971">
        <ele>1574.746</ele>
        <time>2015-01-25T13:57:30Z</time>
      </trkpt>
      <trkpt lat="42.96676" lon="-0.25953">
        <ele>1573.994</ele>
        <time>2015-01-25T13:58:00Z</time>
      </trkpt>
      <trkpt lat="42.96651" lon="-0.25934">
        <ele>1571.936</ele>
        <time>2015-01-25T13:58:30Z</time>
      </trkpt>
      <trkpt lat="42.96628" lon="-0.25923">
        <ele>1566.996</ele>
        <time>2015-01-25T13:59:00Z</time>
      </trkpt>
      <trkpt lat="42.96603" lon="-0.25923">
        <ele>1563.134</ele>
        <time>2015-01-25T13:59:30Z</time>
      </trkpt>
      <trkpt lat="42.96575" lon="-0.25926">
        <ele>1559.636</ele>
        <time>2015-01-25T14:00:00Z</time>
      </trkpt>
      <trkpt lat="42.96558" lon="-0.25924">
        <ele>1557.762</ele>
        <time>2015-01-25T14:00:30Z</time>
      </trkpt>
      <trkpt lat="42.96553" lon="-0.25926">
        <ele>1557.356</ele>
        <time>2015-01-25T14:01:00Z</time>
      </trkpt>
      <trkpt lat="42.96542" lon="-0.25927">
        <ele>1556.047</ele>
        <time>2015-01-25T14:01:30Z</time>
      </trkpt>
      <trkpt lat="42.96511" lon="-0.25932">
        <ele>1551.342</ele>
        <time>2015-01-25T14:02:00Z</time>
      </trkpt>
      <trkpt lat="42.96484" lon="-0.25938">
        <ele>1547.011</ele>
        <time>2015-01-25T14:02:30Z</time>
      </trkpt>
      <trkpt lat="42.96464" lon="-0.25937">
        <ele>1543.596</ele>
        <time>2015-01-25T14:03:00Z</time>
      </trkpt>
      <trkpt lat="42.96442" lon="-0.25941">
        <ele>1538.887</ele>
        <time>2015-01-25T14:03:30Z</time>
      </trkpt>
      <trkpt lat="42.96423" lon="-0.25952">
        <ele>1531.899</ele>
        <time>2015-01-25T14:04:00Z</time>
      </trkpt>
      <trkpt lat="42.96412" lon="-0.25962">
        <ele>1526.284</ele>
        <time>2015-01-25T14:04:30Z</time>
      </trkpt>
      <trkpt lat="42.96412" lon="-0.25962">
        <ele>1526.266</ele>
        <time>2015-01-25T14:05:00Z</time>
      </trkpt>
      <trkpt lat="42.96396" lon="-0.25969">
        <ele>1523.295</ele>
        <time>2015-01-25T14:05:30Z</time>
      </trkpt>
      <trkpt lat="42.96383" lon="-0.25977">
        <ele>1520.012</ele>
        <time>2015-01-25T14:06:00Z</time>
      </trkpt>
      <trkpt lat="42.96383" lon="-0.25977">
        <ele>1520.024</ele>
        <time>2015-01-25T14:06:30Z</time>
      </trkpt>
      <trkpt lat="42.96381" lon="-0.25978">
        <ele>1519.767</ele>
        <time>2015-01-25T14:07:00Z</time>
      </trkpt>
      <trkpt lat="42.96366" lon="-0.25998">
        <ele>1516.699</ele>
        <time>2015-01-25T14:07:30Z</time>
      </trkpt>
      <trkpt lat="42.96361" lon="-0.26018">
        <ele>1512.209</ele>
        <time>2015-01-25T14:08:00Z</time>
      </trkpt>
      <trkpt lat="42.96356" lon="-0.26015">
        <ele>1511.227</ele>
        <time>2015-01-25T14:08:30Z</time>
      </trkpt>
      <trkpt lat="42.96355" lon="-0.26014">
        <ele>1510.729</ele>
        <time>2015-01-25T14:09:00Z</time>
      </trkpt>
      <trkpt lat="42.96342" lon="-0.26016">
        <ele>1505.562</ele>
        <time>2015-01-25T14:09:30Z</time>
      </trkpt>
      <trkpt lat="42.96342" lon="-0.26017">
        <ele>1505.288</ele>
        <time>2015-01-25T14:10:00Z</time>
      </trkpt>
      <trkpt lat="42.9633" lon="-0.26021">
        <ele>1500.131</ele>
        <time>2015-01-25T14:10:30Z</time>
      </trkpt>
      <trkpt lat="42.96327" lon="-0.26025">
        <ele>1497.186</ele>
        <time>2015-01-25T14:11:00Z</time>
      </trkpt>
      <trkpt lat="42.96323" lon="-0.26041">
        <ele>1490.818</ele>
        <time>2015-01-25T14:11:30Z</time>
      </trkpt>
      <trkpt lat="42.96322" lon="-0.2604">
        <ele>1490.828</ele>
        <time>2015-01-25T14:12:00Z</time>
      </trkpt>
      <trkpt lat="42.96315" lon="-0.26046">
        <ele>1487.111</ele>
        <time>2015-01-25T14:12:30Z</time>
      </trkpt>
      <trkpt lat="42.96305" lon="-0.26051">
        <ele>1484.5</ele>
        <time>2015-01-25T14:13:00Z</time>
      </trkpt>
      <trkpt lat="42.96293" lon="-0.2606">
        <ele>1480.326</ele>
        <time>2015-01-25T14:13:30Z</time>
      </trkpt>
      <trkpt lat="42.96279" lon="-0.2607">
        <ele>1475.759</ele>
        <time>2015-01-25T14:14:00Z</time>
      </trkpt>
      <trkpt lat="42.96268" lon="-0.26077">
        <ele>1472.56</ele>
        <time>2015-01-25T14:14:30Z</time>
      </trkpt>
      <trkpt lat="42.9625" lon="-0.26084">
        <ele>1466.862</ele>
        <time>2015-01-25T14:15:00Z</time>
      </trkpt>
      <trkpt lat="42.96239" lon="-0.26078">
        <ele>1463.801</ele>
        <time>2015-01-25T14:15:30Z</time>
      </trkpt>
      <trkpt lat="42.96222" lon="-0.26083">
        <ele>1461.016</ele>
        <time>2015-01-25T14:16:00Z</time>
      </trkpt>
      <trkpt lat="42.96214" lon="-0.26079">
        <ele>1460.981</ele>
        <time>2015-01-25T14:16:30Z</time>
      </trkpt>
      <trkpt lat="42.96195" lon="-0.26083">
        <ele>1463.116</ele>
        <time>2015-01-25T14:17:00Z</time>
      </trkpt>
      <trkpt lat="42.96178" lon="-0.26089">
        <ele>1466.76</ele>
        <time>2015-01-25T14:17:30Z</time>
      </trkpt>
      <trkpt lat="42.96165" lon="-0.26093">
        <ele>1468.539</ele>
        <time>2015-01-25T14:18:00Z</time>
      </trkpt>
      <trkpt lat="42.96143" lon="-0.26114">
        <ele>1469.163</ele>
        <time>2015-01-25T14:18:30Z</time>
      </trkpt>
      <trkpt lat="42.96121" lon="-0.26142">
        <ele>1468.974</ele>
        <time>2015-01-25T14:19:00Z</time>
      </trkpt>
      <trkpt lat="42.96095" lon="-0.26157">
        <ele>1468.32</ele>
        <time>2015-01-25T14:19:30Z</time>
      </trkpt>
      <trkpt lat="42.96078" lon="-0.26164">
        <ele>1467.446</ele>
        <time>2015-01-25T14:20:00Z</time>
      </trkpt>
      <trkpt lat="42.96072" lon="-0.26141">
        <ele>1468.904</ele>
        <time>2015-01-25T14:20:30Z</time>
      </trkpt>
      <trkpt lat="42.96071" lon="-0.26144">
        <ele>1469.187</ele>
        <time>2015-01-25T14:21:00Z</time>
      </trkpt>
      <trkpt lat="42.96069" lon="-0.26145">
        <ele>1467.651</ele>
        <time>2015-01-25T14:21:30Z</time>
      </trkpt>
      <trkpt lat="42.96069" lon="-0.26145">
        <ele>1468.212</ele>
        <time>2015-01-25T14:22:00Z</time>
      </trkpt>
      <trkpt lat="42.96069" lon="-0.26145">
        <ele>1467.837</ele>
        <time>2015-01-25T14:22:30Z</time>
      </trkpt>
      <trkpt lat="42.96069" lon="-0.26145">
        <ele>1467.833</ele>
        <time>2015-01-25T14:23:00Z</time>
      </trkpt>
      <trkpt lat="42.96069" lon="-0.26144">
        <ele>1468.022</ele>
        <time>2015-01-25T14:23:30Z</time>
      </trkpt>
      <trkpt lat="42.96069" lon="-0.26144">
        <ele>1467.737</ele>
        <time>2015-01-25T14:24:00Z</time>
      </trkpt>
      <trkpt lat="42.96069" lon="-0.26144">
        <ele>1468.101</ele>
        <time>2015-01-25T14:24:30Z</time>
      </trkpt>
      <trkpt lat="42.9607" lon="-0.26144">
        <ele>1467.9</ele>
        <time>2015-01-25T14:25:00Z</time>
      </trkpt>
      <trkpt lat="42.9607" lon="-0.26144">
        <ele>1468.281</ele>
        <time>2015-01-25T14:25:30Z</time>
      </trkpt>
      <trkpt lat="42.96071" lon="-0.26143">
        <ele>1468.807</ele>
        <time>2015-01-25T14:26:00Z</time>
      </trkpt>
    </trkseg>
  </trk>
</gpx>